KCLS/CLS METAR and TAF weather

Enter ICAO airport designator
Station Type Date Time Source
KCLS METAR 2018/01/24 07:15 UTC NOAA

KCLS 240715Z AUTO 19010G19KT 4SM BR BKN015 BKN024 OVC050 09/09 A2972 RMK AO2


Station Type Date Time Source
KCLS Decoded METAR 2018/01/24 07:15 UTC NOAA

Station name not available
Jan 24, 2018 - 02:15 AM EST / 2018.01.24 0715 UTC
Wind: from the S (190 degrees) at 12 MPH (10 KT) gusting to 22 MPH (19 KT):0
Visibility: 4 mile(s):0
Sky conditions: overcast
Weather: mist
Temperature: 48 F (9 C)
Dew Point: 48 F (9 C)
Relative Humidity: 100%
Pressure (altimeter): 29.72 in. Hg (1006 hPa)
ob: KCLS 240715Z AUTO 19010G19KT 4SM BR BKN015 BKN024 OVC050 09/09 A2972 RMK AO2
cycle: 7

Station Type Date Time Source
KCLS TAF UTC NOAA

Error!


Example: see airport list